Time;durP1;ratioP1;P1;durP2;ratioP2;P2;SDS_P1;SDS_P2;PMS_P1;PMS_P2;Temp;Humidity;BMP_temperature;BMP_pressure;BME280_temperature;BME280_humidity;BME280_pressure;Samples;Min_cycle;Max_cycle;Signal;HPM_P1;HPM_P2
2023/01/04 00:00:20;;;;;;;10.02;3.67;;;8.90;99.90;;;;;;5020008;28;20670;-79
2023/01/04 00:02:45;;;;;;;7.68;2.90;;;8.90;99.90;;;;;;5042226;28;20189;-79
2023/01/04 00:05:11;;;;;;;9.23;3.38;;;8.90;99.90;;;;;;5059290;28;20179;-79
2023/01/04 00:07:37;;;;;;;7.38;3.13;;;8.90;99.90;;;;;;5041200;28;20322;-80
2023/01/04 00:10:03;;;;;;;8.65;3.30;;;8.90;99.90;;;;;;5063512;28;20191;-79
2023/01/04 00:12:29;;;;;;;7.78;3.47;;;8.90;99.90;;;;;;5056306;28;20191;-80
2023/01/04 00:14:54;;;;;;;12.00;4.30;;;8.90;99.90;;;;;;5046899;28;20176;-78
2023/01/04 00:17:20;;;;;;;12.75;3.95;;;8.90;99.90;;;;;;5045869;28;20790;-79
2023/01/04 00:19:46;;;;;;;11.10;3.80;;;8.90;99.90;;;;;;5050245;28;20176;-79
2023/01/04 00:22:12;;;;;;;9.32;3.70;;;9.00;99.90;;;;;;5033106;28;20179;-78
2023/01/04 00:24:38;;;;;;;7.60;2.90;;;9.00;99.90;;;;;;5046773;28;20180;-80
2023/01/04 00:27:03;;;;;;;18.95;4.07;;;9.00;99.90;;;;;;5047395;28;20195;-80
2023/01/04 00:29:30;;;;;;;11.32;3.63;;;8.90;99.90;;;;;;5023548;28;20192;-80
2023/01/04 00:31:56;;;;;;;9.30;3.40;;;9.00;99.90;;;;;;5014483;28;20188;-80
2023/01/04 00:34:22;;;;;;;8.32;3.45;;;9.00;99.90;;;;;;5031405;28;20198;-79
2023/01/04 00:36:47;;;;;;;11.30;3.90;;;9.00;99.90;;;;;;5048419;28;20550;-80
2023/01/04 00:39:15;;;;;;;10.20;3.47;;;9.00;99.90;;;;;;5007383;28;20211;-80
2023/01/04 00:41:49;;;;;;;11.05;3.60;;;9.00;99.90;;;;;;5053098;28;20207;-79
2023/01/04 00:44:15;;;;;;;7.32;3.50;;;9.00;99.90;;;;;;5031586;28;20187;-79
2023/01/04 00:46:41;;;;;;;7.72;3.47;;;9.00;99.90;;;;;;5032760;28;20182;-79
2023/01/04 00:49:09;;;;;;;8.85;3.67;;;8.90;99.90;;;;;;5029197;28;20226;-80
2023/01/04 00:51:37;;;;;;;11.40;4.13;;;9.00;99.90;;;;;;5041856;28;20203;-80
2023/01/04 00:54:05;;;;;;;8.75;3.42;;;8.90;99.90;;;;;;5031520;28;20172;-80
2023/01/04 00:56:32;;;;;;;12.57;4.18;;;8.90;99.90;;;;;;5035610;28;20691;-79
2023/01/04 00:58:59;;;;;;;10.38;3.83;;;8.90;99.90;;;;;;5023374;28;20256;-82
2023/01/04 01:01:27;;;;;;;7.60;4.22;;;8.90;99.90;;;;;;5036338;28;20226;-80
2023/01/04 01:03:54;;;;;;;13.00;4.00;;;8.90;99.90;;;;;;5028690;28;20188;-79
2023/01/04 01:06:20;;;;;;;11.02;3.67;;;8.90;99.90;;;;;;5066322;28;20179;-80
2023/01/04 01:08:46;;;;;;;14.68;4.35;;;8.90;99.90;;;;;;5050749;28;20258;-78
2023/01/04 01:11:12;;;;;;;9.05;4.43;;;8.90;99.90;;;;;;5048048;28;20198;-80
2023/01/04 01:13:38;;;;;;;10.75;4.18;;;8.90;99.90;;;;;;5013787;28;20466;-79
2023/01/04 01:16:10;;;;;;;8.38;3.95;;;8.90;99.90;;;;;;5032530;28;20184;-79
2023/01/04 01:18:37;;;;;;;7.93;3.95;;;8.90;99.90;;;;;;5068513;28;20259;-79
2023/01/04 01:21:09;;;;;;;8.75;4.03;;;8.90;99.90;;;;;;5029844;28;20208;-79
2023/01/04 01:23:35;;;;;;;11.07;3.97;;;8.90;99.90;;;;;;5015299;28;20200;-79
2023/01/04 01:26:02;;;;;;;12.50;4.18;;;8.90;99.90;;;;;;5031303;28;20648;-80
2023/01/04 01:28:28;;;;;;;10.85;4.20;;;8.90;99.90;;;;;;5051332;28;20519;-79
2023/01/04 01:30:55;;;;;;;9.02;3.60;;;8.90;99.90;;;;;;5022626;28;20192;-79
2023/01/04 01:33:20;;;;;;;10.48;3.97;;;8.90;99.90;;;;;;5031417;28;20215;-81
2023/01/04 01:35:46;;;;;;;10.88;4.28;;;8.90;99.90;;;;;;5041453;28;20277;-80
2023/01/04 01:38:12;;;;;;;8.38;4.00;;;8.90;99.90;;;;;;5015778;28;20215;-79
2023/01/04 01:40:42;;;;;;;8.82;4.00;;;8.90;99.90;;;;;;5028446;28;20212;-79
2023/01/04 01:43:17;;;;;;;10.27;4.03;;;8.90;99.90;;;;;;5018968;28;20188;-79
2023/01/04 01:45:43;;;;;;;9.93;4.05;;;8.90;99.90;;;;;;5033713;28;20206;-79
2023/01/04 01:48:17;;;;;;;6.22;3.45;;;8.90;99.90;;;;;;5034474;28;20176;-79
2023/01/04 01:50:56;;;;;;;7.20;3.20;;;8.90;99.90;;;;;;5049793;28;20214;-79
2023/01/04 01:53:25;;;;;;;9.15;3.97;;;8.90;99.90;;;;;;5031360;28;20180;-79
2023/01/04 01:55:51;;;;;;;7.15;3.80;;;8.90;99.90;;;;;;5028284;28;20180;-79
2023/01/04 01:58:33;;;;;;;9.80;3.90;;;8.90;99.90;;;;;;5047281;28;20529;-79
2023/01/04 02:00:59;;;;;;;5.15;3.30;;;8.90;99.90;;;;;;5029984;28;20210;-79
2023/01/04 02:03:35;;;;;;;6.95;3.40;;;8.80;99.90;;;;;;5056574;28;20184;-78
2023/01/04 02:06:04;;;;;;;6.00;3.10;;;8.90;99.90;;;;;;5047314;28;20187;-80
2023/01/04 02:08:30;;;;;;;6.15;3.17;;;8.90;99.90;;;;;;5054945;28;20231;-80
2023/01/04 02:10:56;;;;;;;5.75;3.25;;;8.90;99.90;;;;;;5033526;28;20187;-79
2023/01/04 02:14:25;;;;;;;4.95;3.00;;;8.80;99.90;;;;;;5034170;28;20634;-79
2023/01/04 02:16:22;;;;;;;5.20;3.00;;;8.90;99.90;;;;;;5028691;28;20246;-79
2023/01/04 02:19:08;;;;;;;6.63;2.85;;;8.90;99.90;;;;;;5015368;28;20238;-79
2023/01/04 02:21:46;;;;;;;7.75;3.05;;;8.90;99.90;;;;;;5028257;28;20207;-79
2023/01/04 02:24:39;;;;;;;3.45;2.70;;;8.90;99.90;;;;;;5033196;28;20647;-79
2023/01/04 02:27:23;;;;;;;4.35;2.70;;;8.90;99.90;;;;;;5034542;28;20643;-79
2023/01/04 02:29:55;;;;;;;3.63;2.28;;;8.90;99.90;;;;;;5048900;28;20646;-79
2023/01/04 02:32:24;;;;;;;3.92;2.63;;;8.90;99.90;;;;;;5045377;28;20326;-78
2023/01/04 02:35:13;;;;;;;4.50;2.65;;;8.90;99.90;;;;;;5033298;28;20632;-79
2023/01/04 02:37:44;;;;;;;3.35;2.20;;;8.90;99.90;;;;;;5033479;28;20168;-78
2023/01/04 02:40:32;;;;;;;3.17;2.15;;;8.90;99.90;;;;;;5047996;28;20203;-79
2023/01/04 02:46:41;;;;;;;2.65;2.13;;;9.00;99.90;;;;;;5047303;28;20695;-79
2023/01/04 02:51:51;;;;;;;3.60;2.17;;;9.00;99.90;;;;;;5033867;28;20559;-79
2023/01/04 02:54:24;;;;;;;3.00;1.75;;;9.00;99.90;;;;;;5021036;28;20188;-79
2023/01/04 02:57:06;;;;;;;3.03;1.80;;;9.00;99.90;;;;;;5033304;28;20172;-79
2023/01/04 03:00:18;;;;;;;3.35;1.92;;;9.00;99.90;;;;;;5031257;28;20195;-79
2023/01/04 03:06:15;;;;;;;2.67;1.70;;;9.10;99.90;;;;;;5033679;28;20195;-80
2023/01/04 03:09:01;;;;;;;3.05;1.90;;;9.10;99.90;;;;;;5034318;28;20281;-79
2023/01/04 03:14:31;;;;;;;2.47;1.60;;;9.10;99.90;;;;;;5047887;28;20314;-78
2023/01/04 03:16:58;;;;;;;5.40;1.77;;;9.10;99.90;;;;;;5033549;28;20643;-79
2023/01/04 03:35:21;;;;;;;2.65;1.65;;;9.20;99.90;;;;;;5039048;28;20196;-82
2023/01/04 03:36:16;;;;;;;2.42;1.33;;;9.30;99.90;;;;;;5027107;28;20259;-80
2023/01/04 03:50:48;;;;;;;1.85;1.17;;;9.50;99.90;;;;;;5036355;28;20231;-80
2023/01/04 03:53:14;;;;;;;3.53;1.30;;;9.50;99.90;;;;;;5013757;28;20526;-80
2023/01/04 03:55:42;;;;;;;1.45;1.23;;;9.60;99.90;;;;;;5046692;28;20192;-79
2023/01/04 03:58:08;;;;;;;1.30;1.20;;;9.60;99.90;;;;;;5062947;28;20195;-79
2023/01/04 04:00:34;;;;;;;2.47;1.20;;;9.60;99.90;;;;;;5032245;28;20218;-79
2023/01/04 04:03:06;;;;;;;2.53;1.27;;;9.70;99.90;;;;;;5003079;28;20188;-79
2023/01/04 04:08:26;;;;;;;2.13;1.27;;;9.70;99.90;;;;;;5049659;28;20615;-80
2023/01/04 04:10:53;;;;;;;2.40;1.48;;;9.70;99.90;;;;;;5058080;28;20184;-79
2023/01/04 04:13:19;;;;;;;2.13;1.50;;;9.80;99.90;;;;;;5038599;28;20188;-80
2023/01/04 04:15:45;;;;;;;2.00;1.58;;;9.80;99.90;;;;;;5006731;28;20169;-83
2023/01/04 04:18:10;;;;;;;3.45;1.35;;;9.80;99.90;;;;;;5012050;28;20190;-80
2023/01/04 04:20:36;;;;;;;2.22;1.60;;;9.90;99.90;;;;;;5030703;28;20206;-79
2023/01/04 04:23:02;;;;;;;3.17;1.52;;;9.90;99.90;;;;;;5031968;28;20183;-80
2023/01/04 04:25:28;;;;;;;2.10;1.63;;;9.90;99.90;;;;;;5045840;28;21874;-84
2023/01/04 04:27:54;;;;;;;1.80;1.60;;;10.00;99.90;;;;;;5039834;28;20191;-79
2023/01/04 04:30:19;;;;;;;2.00;1.90;;;10.00;99.90;;;;;;5027696;28;20196;-79
2023/01/04 04:32:45;;;;;;;2.55;2.00;;;10.10;99.90;;;;;;5031883;28;20179;-79
2023/01/04 04:35:11;;;;;;;2.45;2.25;;;10.10;99.90;;;;;;5029539;28;20172;-79
2023/01/04 04:37:37;;;;;;;2.75;2.20;;;10.20;99.90;;;;;;5038124;28;20552;-81
2023/01/04 04:40:04;;;;;;;2.67;2.17;;;10.20;99.90;;;;;;5031109;28;20179;-79
2023/01/04 04:42:30;;;;;;;3.70;2.47;;;10.20;99.90;;;;;;5030803;28;20192;-79
2023/01/04 04:44:55;;;;;;;2.75;2.47;;;10.30;99.90;;;;;;5030635;28;20183;-80
2023/01/04 04:47:21;;;;;;;3.08;2.42;;;10.30;99.90;;;;;;5059439;28;20296;-82
2023/01/04 04:49:47;;;;;;;3.15;2.53;;;10.40;99.90;;;;;;5025700;28;20334;-80
2023/01/04 04:52:13;;;;;;;3.55;2.70;;;10.40;99.90;;;;;;5027642;28;20195;-79
2023/01/04 04:54:39;;;;;;;4.60;3.08;;;10.50;99.90;;;;;;5031224;28;20180;-80
2023/01/04 04:57:05;;;;;;;2.95;2.67;;;10.50;99.90;;;;;;5030944;28;20180;-80
2023/01/04 04:59:31;;;;;;;3.95;3.05;;;10.50;99.90;;;;;;5044710;28;20188;-79
2023/01/04 05:01:56;;;;;;;3.25;2.78;;;10.50;99.90;;;;;;5030044;28;20686;-79
2023/01/04 05:04:22;;;;;;;3.55;3.03;;;10.60;99.90;;;;;;5026265;28;20187;-81
2023/01/04 05:06:49;;;;;;;3.90;3.40;;;10.60;99.90;;;;;;5042554;28;20211;-80
2023/01/04 05:09:15;;;;;;;3.35;2.85;;;10.60;99.90;;;;;;4990371;28;1104753;-80
2023/01/04 05:14:26;;;;;;;3.67;2.95;;;10.70;99.90;;;;;;5052726;28;20268;-82
2023/01/04 05:16:52;;;;;;;4.55;3.08;;;10.70;99.90;;;;;;5042272;28;20575;-80
2023/01/04 05:19:18;;;;;;;2.45;2.25;;;10.80;99.90;;;;;;5023213;28;20306;-80
2023/01/04 05:21:43;;;;;;;2.95;2.65;;;10.80;99.90;;;;;;5025926;28;20212;-80
2023/01/04 05:24:11;;;;;;;2.53;2.33;;;10.80;99.90;;;;;;5039232;28;20541;-82
2023/01/04 05:26:37;;;;;;;6.18;2.70;;;10.90;99.90;;;;;;5029745;28;20233;-80
2023/01/04 05:29:03;;;;;;;3.10;2.65;;;10.90;99.90;;;;;;5029102;28;20187;-79
2023/01/04 05:31:29;;;;;;;2.47;2.28;;;10.90;99.90;;;;;;5032030;28;20275;-79
2023/01/04 05:33:54;;;;;;;3.78;2.63;;;11.00;99.90;;;;;;5027823;28;20266;-80
2023/01/04 05:36:20;;;;;;;2.50;2.28;;;11.00;99.90;;;;;;5058793;28;20184;-79
2023/01/04 05:38:46;;;;;;;3.20;2.80;;;11.00;99.90;;;;;;5031562;28;20178;-80
2023/01/04 05:43:56;;;;;;;3.58;2.75;;;11.10;99.90;;;;;;5049915;28;20192;-80
2023/01/04 05:46:22;;;;;;;3.40;2.95;;;11.10;99.90;;;;;;5046319;28;20274;-80
2023/01/04 05:48:48;;;;;;;6.65;2.90;;;11.10;99.90;;;;;;5030402;28;20208;-80
2023/01/04 05:51:13;;;;;;;3.28;2.58;;;11.10;99.90;;;;;;5046713;28;20617;-81
2023/01/04 05:53:39;;;;;;;3.17;2.10;;;11.20;99.90;;;;;;5035286;28;20176;-79
2023/01/04 05:56:05;;;;;;;5.70;2.30;;;11.10;99.90;;;;;;5028746;28;20613;-80
2023/01/04 05:58:31;;;;;;;5.63;2.10;;;11.20;99.90;;;;;;5033571;28;20218;-77
2023/01/04 06:00:57;;;;;;;3.65;2.00;;;11.20;99.90;;;;;;5038938;28;20207;-77
2023/01/04 06:03:23;;;;;;;3.70;2.10;;;11.20;99.90;;;;;;5019405;28;20192;-80
2023/01/04 06:05:49;;;;;;;2.67;2.17;;;11.20;99.90;;;;;;5025580;28;20190;-78
2023/01/04 06:08:15;;;;;;;2.55;1.83;;;11.20;99.90;;;;;;5046722;28;20225;-78
2023/01/04 06:10:41;;;;;;;3.17;1.85;;;11.20;99.90;;;;;;5024059;28;20705;-78
2023/01/04 06:13:07;;;;;;;2.92;2.00;;;11.20;99.90;;;;;;5047877;28;20340;-78
2023/01/04 06:15:32;;;;;;;1.90;1.70;;;11.20;99.90;;;;;;5031809;28;20188;-78
2023/01/04 06:17:58;;;;;;;3.35;1.98;;;11.20;99.90;;;;;;5033615;28;20701;-82
2023/01/04 06:20:24;;;;;;;2.55;1.90;;;11.20;99.90;;;;;;5043765;28;20211;-78
2023/01/04 06:22:50;;;;;;;2.35;2.10;;;11.20;99.90;;;;;;5029863;28;20196;-77
2023/01/04 06:25:16;;;;;;;3.60;2.00;;;11.20;99.90;;;;;;5033661;28;20184;-80
2023/01/04 06:27:42;;;;;;;1.95;1.70;;;11.20;99.90;;;;;;5034209;28;20188;-79
2023/01/04 06:30:08;;;;;;;4.05;1.80;;;11.20;99.90;;;;;;5065813;28;20604;-78
2023/01/04 06:32:34;;;;;;;2.55;2.22;;;11.30;99.90;;;;;;5043623;28;20441;-78
2023/01/04 06:35:00;;;;;;;2.50;2.28;;;11.30;99.90;;;;;;5054134;28;20655;-77
2023/01/04 06:37:25;;;;;;;2.63;1.85;;;11.30;99.90;;;;;;5034607;28;20552;-78
2023/01/04 06:39:51;;;;;;;2.80;1.83;;;11.40;99.90;;;;;;5028301;28;20624;-78
2023/01/04 06:45:02;;;;;;;3.65;1.67;;;11.30;99.90;;;;;;5030314;28;20241;-78
2023/01/04 06:47:28;;;;;;;3.28;1.75;;;11.30;99.90;;;;;;5032043;28;20184;-79
2023/01/04 06:49:54;;;;;;;2.65;1.77;;;11.40;99.90;;;;;;5033676;28;20195;-80
2023/01/04 06:52:19;;;;;;;1.50;1.40;;;11.40;99.90;;;;;;5032844;28;20196;-78
2023/01/04 06:54:45;;;;;;;3.53;1.60;;;11.40;99.90;;;;;;5031979;28;20204;-78
2023/01/04 06:57:11;;;;;;;2.75;1.83;;;11.40;99.90;;;;;;5049463;28;20184;-78
2023/01/04 06:59:37;;;;;;;2.50;1.80;;;11.40;99.90;;;;;;5026193;28;20204;-78
2023/01/04 07:02:03;;;;;;;3.03;1.80;;;11.40;99.90;;;;;;5016920;28;20212;-78
2023/01/04 07:04:29;;;;;;;2.95;2.10;;;11.40;99.90;;;;;;5029949;28;20274;-80
2023/01/04 07:06:56;;;;;;;2.05;1.70;;;11.50;99.90;;;;;;5026177;28;20211;-77
2023/01/04 07:09:22;;;;;;;3.60;2.05;;;11.40;99.90;;;;;;5032666;28;20231;-78
2023/01/04 07:11:48;;;;;;;3.08;1.80;;;11.50;99.90;;;;;;5036409;28;20179;-78
2023/01/04 07:14:13;;;;;;;3.40;2.00;;;11.50;99.90;;;;;;5047352;28;20188;-81
2023/01/04 07:16:39;;;;;;;4.03;2.35;;;11.50;99.90;;;;;;5052075;28;20224;-78
2023/01/04 07:19:07;;;;;;;4.25;2.00;;;11.50;99.90;;;;;;5018151;28;20588;-78
2023/01/04 07:21:33;;;;;;;5.47;2.22;;;11.50;99.90;;;;;;5030375;28;20745;-79
2023/01/04 07:23:59;;;;;;;4.65;2.25;;;11.50;99.90;;;;;;5040506;28;20234;-82
2023/01/04 07:26:25;;;;;;;7.45;2.92;;;11.50;99.90;;;;;;5064333;28;20230;-78
2023/01/04 07:31:35;;;;;;;4.68;2.70;;;11.60;99.90;;;;;;5059705;28;20246;-82
2023/01/04 07:34:01;;;;;;;9.18;3.20;;;11.50;99.90;;;;;;5025942;28;20196;-80
2023/01/04 07:36:27;;;;;;;6.70;2.92;;;11.60;99.90;;;;;;5053359;28;20519;-79
2023/01/04 07:38:52;;;;;;;6.13;3.00;;;11.60;99.90;;;;;;5039281;28;20197;-76
2023/01/04 07:41:18;;;;;;;4.25;2.67;;;11.60;99.90;;;;;;5031455;28;20351;-76
2023/01/04 07:43:45;;;;;;;8.88;3.03;;;11.60;99.90;;;;;;5029344;28;20196;-81
2023/01/04 07:46:10;;;;;;;7.68;2.33;;;11.60;99.90;;;;;;5030527;28;20179;-76
2023/01/04 07:48:36;;;;;;;6.30;2.58;;;11.60;99.90;;;;;;5015533;28;20187;-76
2023/01/04 07:51:02;;;;;;;5.57;2.60;;;11.60;99.90;;;;;;5045472;28;20196;-76
2023/01/04 07:53:28;;;;;;;4.13;2.10;;;11.60;99.90;;;;;;5030718;28;20246;-76
2023/01/04 07:55:55;;;;;;;4.75;2.58;;;11.60;99.90;;;;;;5029058;28;20195;-76
2023/01/04 07:58:21;;;;;;;5.20;2.58;;;11.60;99.90;;;;;;5012900;28;20177;-76
2023/01/04 08:00:47;;;;;;;4.55;2.25;;;11.60;99.90;;;;;;5026370;28;20710;-79
2023/01/04 08:03:12;;;;;;;3.95;2.42;;;11.60;99.90;;;;;;5035206;28;20203;-77
2023/01/04 08:05:38;;;;;;;4.53;1.98;;;11.60;99.90;;;;;;5031579;28;20184;-77
2023/01/04 08:08:04;;;;;;;3.85;1.70;;;11.60;99.90;;;;;;5032260;28;20722;-76
2023/01/04 08:10:30;;;;;;;4.05;2.17;;;11.60;99.90;;;;;;5058755;28;20218;-77
2023/01/04 08:12:58;;;;;;;4.13;1.90;;;11.60;99.90;;;;;;5025105;28;20191;-77
2023/01/04 08:15:25;;;;;;;4.75;2.17;;;11.60;99.90;;;;;;5029790;28;20179;-78
2023/01/04 08:17:51;;;;;;;4.22;2.15;;;11.60;99.90;;;;;;5022322;28;20640;-77
2023/01/04 08:20:17;;;;;;;3.53;2.10;;;11.60;99.90;;;;;;5018920;28;20215;-76
2023/01/04 08:22:43;;;;;;;3.72;2.20;;;11.60;99.90;;;;;;5049566;28;20207;-76
2023/01/04 08:25:09;;;;;;;4.43;1.90;;;11.60;99.90;;;;;;5027031;28;20185;-76
2023/01/04 08:27:35;;;;;;;4.60;2.20;;;11.60;99.90;;;;;;5044200;28;20184;-76
2023/01/04 08:30:01;;;;;;;2.38;1.70;;;11.60;99.90;;;;;;5041378;28;20176;-76
2023/01/04 08:32:27;;;;;;;4.78;1.80;;;11.60;99.90;;;;;;5031477;28;20294;-75
2023/01/04 08:34:53;;;;;;;4.18;2.10;;;11.60;99.90;;;;;;5030751;28;20201;-77
2023/01/04 08:37:19;;;;;;;6.93;2.08;;;11.60;99.90;;;;;;5032001;28;20184;-76
2023/01/04 08:39:45;;;;;;;2.55;2.00;;;11.70;99.90;;;;;;5029925;28;20234;-76
2023/01/04 08:42:10;;;;;;;5.15;2.25;;;11.70;99.90;;;;;;5045230;28;20573;-75
2023/01/04 08:44:36;;;;;;;4.20;2.20;;;11.70;99.90;;;;;;5030967;28;20188;-76
2023/01/04 08:47:02;;;;;;;2.85;1.92;;;11.70;99.90;;;;;;5044323;28;20549;-76
2023/01/04 08:49:28;;;;;;;3.33;1.70;;;11.70;99.90;;;;;;5030442;28;20190;-76
2023/01/04 08:51:54;;;;;;;4.13;1.67;;;11.70;99.90;;;;;;5032072;28;20183;-75
2023/01/04 08:54:21;;;;;;;2.85;1.45;;;11.70;99.90;;;;;;5030827;28;20208;-77
2023/01/04 08:56:47;;;;;;;2.20;1.60;;;11.70;99.90;;;;;;5029354;28;20184;-76
2023/01/04 08:59:13;;;;;;;3.75;1.48;;;11.60;99.90;;;;;;5030274;28;20234;-79
2023/01/04 09:01:40;;;;;;;3.30;1.70;;;11.70;99.90;;;;;;5032290;28;20207;-76
2023/01/04 09:04:06;;;;;;;2.78;1.13;;;11.70;99.90;;;;;;5031592;28;20184;-77
2023/01/04 09:06:32;;;;;;;2.17;1.35;;;11.70;99.90;;;;;;5064460;28;20263;-76
2023/01/04 09:08:58;;;;;;;3.40;1.42;;;11.70;99.90;;;;;;5025249;28;20307;-79
2023/01/04 09:11:25;;;;;;;2.08;0.98;;;11.70;99.90;;;;;;5035511;28;20278;-77
2023/01/04 09:13:55;;;;;;;5.85;1.45;;;11.70;99.90;;;;;;5028823;28;20183;-77
2023/01/04 09:16:21;;;;;;;3.47;1.48;;;11.70;99.90;;;;;;5063190;28;20629;-78
2023/01/04 09:18:47;;;;;;;5.07;1.55;;;11.70;99.90;;;;;;5050023;28;20203;-75
2023/01/04 09:21:16;;;;;;;5.07;1.60;;;11.70;99.90;;;;;;5050981;28;20683;-77
2023/01/04 09:23:42;;;;;;;4.13;1.60;;;11.70;99.90;;;;;;5033712;28;20183;-78
2023/01/04 09:26:11;;;;;;;5.60;1.73;;;11.70;99.90;;;;;;5038812;28;20180;-81
2023/01/04 09:28:37;;;;;;;8.05;1.83;;;11.80;99.90;;;;;;5035312;28;20191;-78
2023/01/04 09:31:18;;;;;;;6.55;2.30;;;11.70;99.90;;;;;;5016152;28;20436;-77
2023/01/04 09:33:45;;;;;;;8.20;2.60;;;11.80;99.90;;;;;;5035734;28;20175;-78
2023/01/04 09:36:14;;;;;;;6.40;2.70;;;11.80;99.90;;;;;;5033468;28;20176;-77
2023/01/04 09:38:40;;;;;;;9.05;2.95;;;11.80;99.90;;;;;;5067350;28;20182;-77
2023/01/04 09:41:12;;;;;;;8.50;2.55;;;11.80;99.90;;;;;;5033791;28;20235;-78
2023/01/04 09:44:10;;;;;;;11.43;3.00;;;11.80;99.90;;;;;;5035083;28;20184;-77
2023/01/04 09:46:50;;;;;;;11.27;2.70;;;11.80;99.90;;;;;;4981151;28;20204;-78
2023/01/04 09:49:40;;;;;;;9.73;2.72;;;11.80;99.90;;;;;;5061371;28;20280;-80
2023/01/04 09:52:14;;;;;;;8.40;3.03;;;11.80;99.90;;;;;;5035229;28;20624;-79
2023/01/04 09:54:54;;;;;;;14.75;3.55;;;11.80;99.90;;;;;;5034315;28;20206;-78
2023/01/04 09:57:28;;;;;;;15.45;3.55;;;11.80;99.90;;;;;;5034559;28;20210;-79
2023/01/04 10:00:00;;;;;;;13.20;3.45;;;11.80;99.90;;;;;;5048444;28;20546;-78
2023/01/04 10:03:00;;;;;;;18.10;3.88;;;11.80;99.90;;;;;;5033326;28;20283;-78
2023/01/04 10:05:29;;;;;;;11.80;3.00;;;11.80;99.90;;;;;;5034560;28;20203;-79
2023/01/04 10:07:55;;;;;;;10.05;2.95;;;11.80;99.90;;;;;;5036315;28;20219;-74
2023/01/04 10:10:35;;;;;;;11.88;3.20;;;11.90;99.90;;;;;;5047203;28;20266;-76
2023/01/04 10:13:22;;;;;;;14.38;3.22;;;11.90;99.90;;;;;;5032692;28;20183;-78
2023/01/04 10:16:11;;;;;;;13.13;3.08;;;11.90;99.90;;;;;;5029044;28;20180;-77
2023/01/04 10:19:05;;;;;;;15.48;3.42;;;11.90;99.90;;;;;;5025281;28;20199;-77
2023/01/04 10:21:40;;;;;;;11.57;3.20;;;11.90;99.90;;;;;;5025509;28;20193;-77
2023/01/04 10:24:17;;;;;;;18.15;3.72;;;12.00;99.90;;;;;;5014576;28;20254;-79
2023/01/04 10:26:47;;;;;;;19.00;3.45;;;12.00;99.90;;;;;;5066443;28;20180;-78
2023/01/04 10:29:28;;;;;;;19.73;3.28;;;12.00;99.90;;;;;;5025505;28;20199;-78
2023/01/04 10:32:19;;;;;;;19.35;3.78;;;12.00;99.90;;;;;;5048976;28;20195;-77
2023/01/04 10:34:46;;;;;;;18.25;4.10;;;12.00;99.90;;;;;;5031636;28;20317;-76
2023/01/04 10:37:32;;;;;;;12.77;3.15;;;12.10;99.90;;;;;;5032826;28;20194;-79
2023/01/04 10:39:57;;;;;;;17.45;3.28;;;12.10;99.90;;;;;;5033748;28;20628;-78
2023/01/04 10:42:31;;;;;;;18.60;3.90;;;12.20;99.90;;;;;;5032672;28;20235;-77
2023/01/04 10:45:06;;;;;;;18.70;3.75;;;12.20;99.90;;;;;;5032706;28;20184;-76
2023/01/04 10:47:54;;;;;;;27.30;4.22;;;12.20;99.90;;;;;;5048187;28;20183;-78
2023/01/04 10:50:52;;;;;;;21.15;3.60;;;12.20;99.90;;;;;;5041976;28;20660;-77
2023/01/04 10:53:54;;;;;;;23.52;4.18;;;12.20;99.90;;;;;;5052648;28;20191;-77
2023/01/04 10:56:31;;;;;;;21.08;3.90;;;12.30;99.90;;;;;;5027964;28;20195;-80
2023/01/04 10:59:28;;;;;;;30.90;5.32;;;12.20;99.90;;;;;;5031891;28;20180;-78
2023/01/04 11:02:10;;;;;;;27.67;4.53;;;12.30;99.90;;;;;;5029493;28;20624;-78
2023/01/04 11:04:38;;;;;;;30.88;4.97;;;12.40;99.90;;;;;;5035444;28;20195;-78
2023/01/04 11:07:14;;;;;;;34.92;5.45;;;12.40;99.90;;;;;;5064722;28;20313;-78
2023/01/04 11:09:48;;;;;;;26.05;4.20;;;12.40;99.90;;;;;;5026315;28;20256;-79
2023/01/04 11:12:19;;;;;;;32.35;4.90;;;12.40;99.90;;;;;;5014146;28;20191;-78
2023/01/04 11:14:44;;;;;;;33.03;5.90;;;12.50;99.90;;;;;;5018483;28;20577;-78
2023/01/04 11:17:11;;;;;;;28.52;4.75;;;12.50;99.90;;;;;;5033146;28;20184;-80
2023/01/04 11:19:38;;;;;;;33.33;5.07;;;12.50;99.90;;;;;;5065653;28;20188;-77
2023/01/04 11:22:17;;;;;;;33.50;4.88;;;12.50;99.90;;;;;;5032470;28;20212;-76
2023/01/04 11:24:45;;;;;;;29.42;5.45;;;12.50;99.90;;;;;;5035536;28;20639;-80
2023/01/04 11:27:19;;;;;;;32.20;5.32;;;12.60;99.90;;;;;;5032816;28;20176;-77
2023/01/04 11:29:50;;;;;;;25.77;4.28;;;12.60;99.90;;;;;;5047862;28;20584;-78
2023/01/04 11:32:35;;;;;;;28.90;4.43;;;12.60;99.90;;;;;;5033516;28;20186;-78
2023/01/04 11:35:01;;;;;;;24.88;4.38;;;12.60;99.90;;;;;;5032327;28;20549;-80
2023/01/04 11:37:33;;;;;;;18.42;3.38;;;12.70;99.90;;;;;;5047448;28;20184;-79
2023/01/04 11:40:18;;;;;;;23.45;4.10;;;12.60;99.90;;;;;;5029837;28;20610;-78
2023/01/04 11:42:49;;;;;;;20.35;3.95;;;12.60;99.90;;;;;;5030788;28;20212;-79
2023/01/04 11:45:26;;;;;;;27.00;4.43;;;12.60;99.90;;;;;;5032076;28;20184;-77
2023/01/04 11:47:57;;;;;;;25.85;4.30;;;12.70;99.90;;;;;;5033643;28;20172;-77
2023/01/04 11:50:43;;;;;;;33.25;4.57;;;12.60;99.90;;;;;;5020972;28;20566;-77
2023/01/04 11:53:22;;;;;;;37.05;5.43;;;12.60;99.90;;;;;;5013422;28;20177;-76
2023/01/04 11:55:48;;;;;;;30.40;5.18;;;12.60;99.90;;;;;;5028193;28;20183;-79
2023/01/04 11:58:16;;;;;;;38.42;5.43;;;12.60;99.90;;;;;;5064010;28;20203;-76
2023/01/04 12:00:54;;;;;;;28.17;4.88;;;12.60;99.90;;;;;;5018363;28;20236;-76
2023/01/04 12:03:29;;;;;;;31.40;4.95;;;12.60;99.90;;;;;;5025993;28;20252;-76
2023/01/04 12:05:56;;;;;;;25.27;4.70;;;12.60;99.90;;;;;;5032191;28;20649;-77
2023/01/04 12:08:35;;;;;;;27.48;4.55;;;12.60;99.90;;;;;;5032524;28;20352;-77
2023/01/04 12:11:03;;;;;;;31.55;5.57;;;12.70;99.90;;;;;;5046141;28;20257;-77
2023/01/04 12:13:32;;;;;;;28.60;4.68;;;12.60;99.90;;;;;;5064865;28;20636;-78
2023/01/04 12:16:12;;;;;;;28.40;4.72;;;12.70;99.90;;;;;;5063877;28;20526;-78
2023/01/04 12:18:43;;;;;;;22.17;4.22;;;12.70;99.90;;;;;;5032015;28;20675;-78
2023/01/04 12:21:22;;;;;;;32.63;4.60;;;12.70;99.90;;;;;;5030727;28;20208;-77
2023/01/04 12:23:49;;;;;;;28.42;4.45;;;12.70;99.90;;;;;;5012567;28;20230;-77
2023/01/04 12:26:16;;;;;;;22.92;4.70;;;12.70;99.90;;;;;;5029388;28;20242;-80
2023/01/04 12:28:47;;;;;;;26.10;4.35;;;12.70;99.90;;;;;;5047027;28;20562;-77
2023/01/04 12:31:19;;;;;;;30.92;4.47;;;12.70;99.90;;;;;;5031704;28;20194;-77
2023/01/04 12:33:45;;;;;;;24.65;4.05;;;12.70;99.90;;;;;;5047901;28;20191;-77
2023/01/04 12:36:15;;;;;;;25.80;4.28;;;12.80;99.90;;;;;;5031676;28;20188;-78
2023/01/04 12:38:59;;;;;;;21.00;3.65;;;12.80;99.90;;;;;;5032392;28;20631;-78
2023/01/04 12:41:34;;;;;;;18.85;3.22;;;12.80;99.90;;;;;;5044569;28;20345;-77
2023/01/04 12:44:01;;;;;;;15.68;3.42;;;12.80;99.90;;;;;;5031621;28;20183;-78
2023/01/04 12:49:49;;;;;;;12.52;2.92;;;12.80;99.90;;;;;;5030108;28;20644;-76
2023/01/04 12:52:15;;;;;;;26.77;3.40;;;12.80;99.90;;;;;;5032377;28;20207;-76
2023/01/04 12:54:53;;;;;;;12.77;2.38;;;12.80;99.90;;;;;;5049612;28;20184;-76
2023/01/04 12:57:24;;;;;;;24.17;2.97;;;12.80;99.90;;;;;;5043660;28;20179;-79
2023/01/04 13:00:11;;;;;;;14.10;3.10;;;12.80;99.90;;;;;;5021775;28;20271;-77
2023/01/04 13:03:06;;;;;;;15.40;2.90;;;12.80;99.90;;;;;;5036249;28;20279;-77
2023/01/04 13:05:35;;;;;;;20.83;3.20;;;12.80;99.90;;;;;;5033683;28;20196;-78
2023/01/04 13:08:07;;;;;;;14.85;3.13;;;12.80;99.90;;;;;;5034803;28;20228;-78
2023/01/04 13:10:50;;;;;;;20.45;3.17;;;12.80;99.90;;;;;;5033356;28;20663;-78
2023/01/04 13:13:41;;;;;;;16.98;2.83;;;12.80;99.90;;;;;;5036338;28;20218;-81
2023/01/04 13:16:21;;;;;;;11.73;2.95;;;12.80;99.90;;;;;;5033868;28;20184;-78
2023/01/04 13:18:51;;;;;;;10.95;2.90;;;12.80;99.90;;;;;;5052250;28;20206;-78
2023/01/04 13:21:26;;;;;;;14.85;3.08;;;12.70;99.90;;;;;;5034530;28;20207;-78
2023/01/04 13:23:58;;;;;;;16.27;2.95;;;12.70;99.90;;;;;;5035522;28;20234;-79
2023/01/04 13:26:39;;;;;;;19.73;3.25;;;12.70;99.90;;;;;;5043576;28;20188;-78
2023/01/04 13:29:30;;;;;;;18.60;3.15;;;12.70;99.90;;;;;;5034416;28;20275;-78
2023/01/04 13:32:10;;;;;;;19.42;3.38;;;12.70;99.90;;;;;;5021026;28;20208;-78
2023/01/04 13:34:43;;;;;;;21.23;4.25;;;12.70;99.90;;;;;;5033548;28;20273;-77
2023/01/04 13:37:14;;;;;;;23.50;3.65;;;12.70;99.90;;;;;;5049875;28;20278;-78
2023/01/04 13:39:49;;;;;;;18.08;3.45;;;12.70;99.90;;;;;;5033444;28;20183;-78
2023/01/04 13:42:28;;;;;;;17.05;3.20;;;12.70;99.90;;;;;;5046270;28;20284;-77
2023/01/04 13:45:07;;;;;;;27.85;3.97;;;12.70;99.90;;;;;;5032839;28;20191;-78
2023/01/04 13:47:36;;;;;;;18.98;3.30;;;12.70;99.90;;;;;;5034588;28;20514;-78
2023/01/04 13:50:03;;;;;;;19.42;3.75;;;12.70;99.90;;;;;;5049505;28;20187;-78
2023/01/04 13:52:29;;;;;;;19.08;3.28;;;12.70;99.90;;;;;;5035668;28;20643;-77
2023/01/04 13:55:19;;;;;;;25.42;4.00;;;12.70;99.90;;;;;;5034180;28;20183;-76
2023/01/04 13:58:16;;;;;;;25.33;3.72;;;12.70;99.90;;;;;;5033161;28;20172;-77